Time;durP1;ratioP1;P1;durP2;ratioP2;P2;SDS_P1;SDS_P2;PMS_P1;PMS_P2;Temp;Humidity;BMP_temperature;BMP_pressure;BME280_temperature;BME280_humidity;BME280_pressure;Samples;Min_cycle;Max_cycle;Signal;HPM_P1;HPM_P2
2021/09/10 00:02:07;;;;;;;7.20;4.88;;;;;;;14.24;100.00;93425.66;5069648;28;20048;-76
2021/09/10 00:04:34;;;;;;;13.90;8.55;;;;;;;14.33;100.00;93436.44;5069462;28;20098;-76
2021/09/10 00:07:00;;;;;;;48.20;26.17;;;;;;;14.33;100.00;93443.41;5069345;28;20052;-76
2021/09/10 00:09:27;;;;;;;62.92;33.67;;;;;;;14.30;100.00;93434.31;5069477;28;20440;-76
2021/09/10 00:11:54;;;;;;;51.00;28.33;;;;;;;14.30;100.00;93442.84;5069089;28;20048;-76
2021/09/10 00:14:21;;;;;;;46.00;25.20;;;;;;;14.25;100.00;93431.59;5069051;28;20044;-76
2021/09/10 00:16:49;;;;;;;23.45;13.38;;;;;;;14.22;100.00;93419.16;5068224;28;20051;-76
2021/09/10 00:19:16;;;;;;;18.27;11.57;;;;;;;14.27;100.00;93429.59;5069504;28;20414;-76
2021/09/10 00:21:43;;;;;;;21.90;11.02;;;;;;;14.24;100.00;93430.03;5069432;28;20339;-76
2021/09/10 00:24:10;;;;;;;14.65;9.60;;;;;;;14.25;100.00;93436.78;5069428;28;20071;-76
2021/09/10 00:26:36;;;;;;;14.63;8.20;;;;;;;14.24;100.00;93430.84;5069187;28;20048;-76
2021/09/10 00:29:03;;;;;;;11.77;7.50;;;;;;;14.27;100.00;93432.94;5069445;28;20475;-76
2021/09/10 00:31:30;;;;;;;11.73;7.18;;;;;;;14.19;100.00;93417.00;5069002;28;20102;-76
2021/09/10 00:33:58;;;;;;;11.30;5.95;;;;;;;14.23;100.00;93421.53;5069006;28;20553;-76
2021/09/10 00:36:25;;;;;;;8.60;5.65;;;;;;;14.24;100.00;93430.84;5069272;28;20048;-76
2021/09/10 00:38:52;;;;;;;8.77;5.22;;;;;;;14.30;100.00;93426.53;5068758;28;20056;-76
2021/09/10 00:41:19;;;;;;;7.32;5.82;;;;;;;14.25;100.00;93429.03;5069209;28;20048;-76
2021/09/10 00:43:45;;;;;;;11.75;5.75;;;;;;;14.15;100.00;93403.78;5068924;28;20185;-76
2021/09/10 00:46:12;;;;;;;9.93;5.78;;;;;;;14.22;100.00;93426.91;5068952;28;20048;-76
2021/09/10 00:48:41;;;;;;;8.63;5.13;;;;;;;14.15;100.00;93421.84;5069136;28;20080;-76
2021/09/10 00:51:09;;;;;;;8.35;5.10;;;;;;;14.13;100.00;93426.47;5068837;28;20048;-76
2021/09/10 00:53:36;;;;;;;10.15;5.55;;;;;;;14.19;100.00;93435.09;5068760;28;20056;-76
2021/09/10 00:56:03;;;;;;;6.97;5.68;;;;;;;14.20;100.00;93432.28;5068797;28;20063;-76
2021/09/10 00:58:30;;;;;;;7.38;5.18;;;;;;;13.98;100.00;93409.63;5069051;28;20045;-76
2021/09/10 01:00:57;;;;;;;9.68;5.15;;;;;;;14.09;100.00;93428.72;5069056;28;20048;-76
2021/09/10 01:03:24;;;;;;;8.13;5.28;;;;;;;14.12;100.00;93428.25;5068958;28;20415;-76
2021/09/10 01:05:52;;;;;;;10.63;5.72;;;;;;;14.11;100.00;93433.63;5068705;28;20580;-76
2021/09/10 01:08:22;;;;;;;8.50;5.50;;;;;;;14.03;100.00;93429.63;5068895;28;20044;-76
2021/09/10 01:10:51;;;;;;;8.75;5.88;;;;;;;13.98;100.00;93432.09;5072809;28;20409;-76
2021/09/10 01:13:18;;;;;;;9.43;5.53;;;;;;;13.97;100.00;93426.13;5072369;28;20052;-76
2021/09/10 01:15:45;;;;;;;8.05;5.63;;;;;;;13.89;100.00;93427.25;5072656;28;20045;-76
2021/09/10 01:18:12;;;;;;;7.43;5.10;;;;;;;13.84;100.00;93429.72;5072393;28;20131;-76
2021/09/10 01:20:39;;;;;;;8.65;5.57;;;;;;;13.61;100.00;93420.94;5072302;28;20129;-76
2021/09/10 01:23:06;;;;;;;8.15;5.93;;;;;;;13.60;100.00;93421.97;5072436;28;20448;-76
2021/09/10 01:25:35;;;;;;;10.30;6.22;;;;;;;13.40;100.00;93422.25;5072329;28;20044;-76
2021/09/10 01:28:02;;;;;;;10.45;6.13;;;;;;;13.47;100.00;93422.19;5072125;28;20067;-76
2021/09/10 01:30:31;;;;;;;9.25;5.43;;;;;;;13.49;100.00;93412.41;5072347;28;20056;-76
2021/09/10 01:32:59;;;;;;;8.32;5.25;;;;;;;13.58;100.00;93420.63;5072862;28;20048;-76
2021/09/10 01:35:26;;;;;;;7.55;5.60;;;;;;;13.60;100.00;93405.69;5072815;28;20053;-76
2021/09/10 01:37:54;;;;;;;8.57;5.15;;;;;;;13.69;100.00;93413.88;5072022;28;20444;-76
2021/09/10 01:40:21;;;;;;;9.15;5.90;;;;;;;13.65;100.00;93399.88;5071737;28;20048;-76
2021/09/10 01:42:49;;;;;;;6.28;5.28;;;;;;;13.74;100.00;93414.00;5072248;28;20045;-76
2021/09/10 01:45:17;;;;;;;6.25;5.40;;;;;;;13.74;100.00;93416.56;5071948;28;20051;-76
2021/09/10 01:47:44;;;;;;;13.45;5.65;;;;;;;13.73;100.00;93423.56;5072135;28;20051;-76
2021/09/10 01:50:13;;;;;;;10.13;5.85;;;;;;;13.79;100.00;93415.94;5071977;28;20044;-76
2021/09/10 01:52:40;;;;;;;8.57;5.22;;;;;;;13.83;100.00;93422.19;5071700;28;20071;-76
2021/09/10 01:55:10;;;;;;;10.00;5.82;;;;;;;13.76;100.00;93414.56;5071915;28;20056;-76
2021/09/10 01:57:37;;;;;;;10.25;5.95;;;;;;;13.71;100.00;93419.63;5071527;28;20056;-76
2021/09/10 02:00:07;;;;;;;9.45;5.93;;;;;;;13.81;100.00;93419.84;5071797;28;20055;-76
2021/09/10 02:02:34;;;;;;;9.52;6.10;;;;;;;13.78;100.00;93419.53;5071405;28;20056;-76
2021/09/10 02:05:01;;;;;;;10.15;6.03;;;;;;;13.74;100.00;93422.53;5071507;28;20401;-76
2021/09/10 02:07:28;;;;;;;9.65;5.43;;;;;;;13.77;100.00;93418.72;5071444;28;20063;-76
2021/09/10 02:09:54;;;;;;;8.15;5.55;;;;;;;13.78;100.00;93416.94;5071784;28;20048;-76
2021/09/10 02:12:21;;;;;;;10.20;6.07;;;;;;;13.79;100.00;93415.94;5071388;28;20056;-76
2021/09/10 02:14:48;;;;;;;8.77;5.75;;;;;;;13.75;100.00;93413.78;5071543;28;20044;-76
2021/09/10 02:17:16;;;;;;;8.73;6.18;;;;;;;13.75;100.00;93413.78;5070999;28;20101;-76
2021/09/10 02:19:43;;;;;;;8.38;5.68;;;;;;;13.77;100.00;93413.56;5071606;28;20048;-76
2021/09/10 02:22:10;;;;;;;8.45;5.97;;;;;;;13.70;100.00;93410.31;5071136;28;20048;-76
2021/09/10 02:24:37;;;;;;;8.70;6.00;;;;;;;13.73;100.00;93422.75;5071425;28;20447;-76
2021/09/10 02:27:04;;;;;;;7.55;6.40;;;;;;;13.70;100.00;93415.47;5071727;28;20045;-76
2021/09/10 02:29:31;;;;;;;8.70;6.10;;;;;;;13.74;100.00;93419.97;5071271;28;20058;-77
2021/09/10 02:31:58;;;;;;;8.45;5.97;;;;;;;13.73;100.00;93418.38;5071061;28;20049;-76
2021/09/10 02:34:26;;;;;;;9.98;5.40;;;;;;;13.74;100.00;93419.16;5070988;28;20053;-76
2021/09/10 02:36:53;;;;;;;7.85;5.78;;;;;;;13.74;100.00;93417.38;5070688;28;20048;-76
2021/09/10 02:39:20;;;;;;;8.95;5.60;;;;;;;13.70;100.00;93416.25;5070859;28;20055;-76
2021/09/10 02:41:46;;;;;;;9.43;5.72;;;;;;;13.71;100.00;93407.47;5070767;28;20044;-77
2021/09/10 02:44:13;;;;;;;6.93;5.50;;;;;;;13.72;100.00;93413.44;5070601;28;20056;-76
2021/09/10 02:46:40;;;;;;;7.57;5.22;;;;;;;13.65;100.00;93410.19;5070702;28;20045;-76
2021/09/10 02:49:07;;;;;;;9.02;5.53;;;;;;;13.63;100.00;93413.78;5070952;28;20048;-76
2021/09/10 02:51:35;;;;;;;11.65;5.63;;;;;;;13.60;100.00;93418.59;5070401;28;20055;-76
2021/09/10 02:54:02;;;;;;;10.52;5.70;;;;;;;13.55;100.00;93411.53;5070465;28;20049;-77
2021/09/10 02:56:29;;;;;;;8.50;5.72;;;;;;;13.46;100.00;93402.50;5070518;28;20049;-77
2021/09/10 02:58:56;;;;;;;7.50;5.80;;;;;;;13.49;100.00;93405.47;5066390;28;20048;-77
2021/09/10 03:01:22;;;;;;;9.80;6.00;;;;;;;13.53;100.00;93410.16;5068704;28;20535;-76
2021/09/10 03:03:49;;;;;;;9.63;5.65;;;;;;;13.48;100.00;93414.19;5069668;28;20056;-77
2021/09/10 03:06:16;;;;;;;7.57;4.95;;;;;;;13.50;100.00;93411.41;5070500;28;20071;-76
2021/09/10 03:08:44;;;;;;;8.90;5.50;;;;;;;13.48;100.00;93414.19;5070161;28;20052;-76
2021/09/10 03:11:11;;;;;;;8.45;5.20;;;;;;;13.42;100.00;93401.38;5070190;28;20052;-77
2021/09/10 03:13:38;;;;;;;6.15;4.68;;;;;;;13.40;100.00;93404.19;5070156;28;20524;-76
2021/09/10 03:16:05;;;;;;;9.23;5.45;;;;;;;13.35;100.00;93404.84;5070413;28;20102;-76
2021/09/10 03:18:32;;;;;;;5.53;4.55;;;;;;;13.43;100.00;93418.44;5069671;28;20056;-76
2021/09/10 03:20:59;;;;;;;8.93;5.40;;;;;;;13.39;100.00;93415.53;5070118;28;20102;-76
2021/09/10 03:23:26;;;;;;;11.38;5.50;;;;;;;13.25;100.00;93406.38;5069793;28;20048;-77
2021/09/10 03:25:54;;;;;;;9.75;4.90;;;;;;;13.31;100.00;93426.94;5069974;28;20051;-76
2021/09/10 03:28:21;;;;;;;9.00;5.65;;;;;;;13.21;100.00;93429.25;5069697;28;20059;-77
2021/09/10 03:30:48;;;;;;;11.38;6.13;;;;;;;13.19;100.00;93423.56;5069677;28;20045;-77
2021/09/10 03:33:14;;;;;;;9.18;5.28;;;;;;;13.13;100.00;93412.31;5069471;28;20044;-76
2021/09/10 03:35:41;;;;;;;8.30;5.85;;;;;;;13.19;100.00;93419.16;5069690;28;20918;-77
2021/09/10 03:38:08;;;;;;;8.50;5.40;;;;;;;13.20;100.00;93431.03;5069702;28;20052;-76
2021/09/10 03:40:36;;;;;;;7.35;5.40;;;;;;;13.22;100.00;93420.50;5069691;28;20138;-76
2021/09/10 03:43:06;;;;;;;7.30;4.95;;;;;;;13.17;100.00;93425.53;5069963;28;20109;-76
2021/09/10 03:45:33;;;;;;;9.35;5.72;;;;;;;13.12;100.00;93422.84;5069219;28;20048;-76
2021/09/10 03:47:59;;;;;;;7.28;5.50;;;;;;;13.12;100.00;93421.06;5069706;28;20341;-76
2021/09/10 03:50:26;;;;;;;8.35;5.70;;;;;;;13.16;100.00;93424.78;5069551;28;20138;-76
2021/09/10 03:52:54;;;;;;;10.00;6.07;;;;;;;13.16;100.00;93429.13;5069438;28;20047;-76
2021/09/10 03:55:21;;;;;;;10.57;5.25;;;;;;;13.14;100.00;93426.00;5069815;28;20480;-76
2021/09/10 03:57:48;;;;;;;8.18;5.97;;;;;;;13.07;100.00;93426.09;5069444;28;20060;-76
2021/09/10 04:00:16;;;;;;;7.45;5.53;;;;;;;13.03;100.00;93425.75;5068838;28;20044;-76
2021/09/10 04:02:44;;;;;;;9.05;6.07;;;;;;;12.95;100.00;93424.25;5068986;28;20052;-77
2021/09/10 04:05:12;;;;;;;7.88;6.00;;;;;;;12.85;100.00;93413.66;5068819;28;20048;-76
2021/09/10 04:07:38;;;;;;;9.93;5.90;;;;;;;12.79;100.00;93410.19;5068957;28;20064;-76
2021/09/10 04:10:06;;;;;;;8.82;6.18;;;;;;;12.89;100.00;93426.91;5069244;28;20460;-76
2021/09/10 04:12:33;;;;;;;9.55;5.35;;;;;;;12.85;100.00;93425.75;5068806;28;20052;-76
2021/09/10 04:15:00;;;;;;;8.85;5.95;;;;;;;12.82;100.00;93432.13;5068971;28;20045;-76
2021/09/10 04:17:28;;;;;;;8.82;6.03;;;;;;;12.77;100.00;93432.03;5069144;28;20056;-76
2021/09/10 04:19:55;;;;;;;10.00;6.10;;;;;;;12.74;100.00;93433.25;5069380;28;20040;-76
2021/09/10 04:22:22;;;;;;;9.77;5.45;;;;;;;12.74;100.00;93440.19;5069009;28;20414;-76
2021/09/10 04:24:48;;;;;;;12.05;5.70;;;;;;;12.73;100.00;93439.38;5069189;28;20048;-76
2021/09/10 04:27:15;;;;;;;12.43;5.72;;;;;;;12.62;100.00;93427.22;5068806;28;20041;-76
2021/09/10 04:29:43;;;;;;;13.07;6.68;;;;;;;12.61;100.00;93425.66;5068843;28;20045;-76
2021/09/10 04:32:10;;;;;;;14.73;6.75;;;;;;;12.48;100.00;93414.50;5069050;28;20073;-76
2021/09/10 04:34:38;;;;;;;14.13;7.07;;;;;;;12.66;100.00;93449.78;5068682;28;20059;-76
2021/09/10 04:37:06;;;;;;;20.42;8.70;;;;;;;12.62;100.00;93448.66;5068898;28;20524;-76
2021/09/10 04:39:33;;;;;;;14.32;7.65;;;;;;;12.65;100.00;93455.16;5068578;28;20121;-76
2021/09/10 04:42:00;;;;;;;19.05;8.68;;;;;;;12.65;100.00;93455.94;5069016;28;20094;-76
2021/09/10 04:44:27;;;;;;;15.68;7.22;;;;;;;12.62;100.00;93455.56;5070809;28;20508;-76
2021/09/10 04:46:53;;;;;;;10.55;6.80;;;;;;;12.65;100.00;93460.31;5072141;28;20056;-77
2021/09/10 04:49:20;;;;;;;13.60;7.10;;;;;;;12.63;100.00;93457.94;5071773;28;20048;-76
2021/09/10 04:51:48;;;;;;;14.68;7.38;;;;;;;12.61;100.00;93448.84;5071738;28;20048;-76
2021/09/10 04:54:16;;;;;;;9.95;7.20;;;;;;;12.58;100.00;93439.00;5071547;28;20052;-76
2021/09/10 04:56:43;;;;;;;13.63;8.25;;;;;;;12.64;100.00;93456.94;5071478;28;20390;-77
2021/09/10 04:59:10;;;;;;;13.82;7.78;;;;;;;12.66;100.00;93449.78;5071606;28;20053;-77
2021/09/10 05:01:37;;;;;;;14.65;8.68;;;;;;;12.72;100.00;93455.84;5071224;28;20040;-77
2021/09/10 05:04:04;;;;;;;11.57;7.25;;;;;;;12.76;100.00;93453.63;5071177;28;20041;-76
2021/09/10 05:06:31;;;;;;;15.40;7.18;;;;;;;12.80;100.00;93453.00;5071331;28;20052;-76
2021/09/10 05:08:59;;;;;;;15.82;7.78;;;;;;;12.82;100.00;93445.03;5071079;28;20045;-76
2021/09/10 05:11:26;;;;;;;17.88;7.55;;;;;;;12.86;100.00;93456.50;5071451;28;20045;-76
2021/09/10 05:13:53;;;;;;;13.70;8.18;;;;;;;12.88;100.00;93454.50;5070941;28;20051;-76
2021/09/10 05:16:20;;;;;;;16.30;9.52;;;;;;;12.85;100.00;93442.03;5071197;28;20113;-77
2021/09/10 05:18:46;;;;;;;14.82;8.10;;;;;;;12.94;100.00;93453.63;5071181;28;20048;-76
2021/09/10 05:21:13;;;;;;;17.38;8.18;;;;;;;13.01;100.00;93453.53;5071212;28;20103;-76
2021/09/10 05:23:40;;;;;;;19.77;8.20;;;;;;;13.07;100.00;93449.28;5070941;28;20516;-76
2021/09/10 05:26:08;;;;;;;13.02;8.57;;;;;;;13.01;100.00;93453.53;5071196;28;20045;-76
2021/09/10 05:28:35;;;;;;;14.27;7.75;;;;;;;13.00;100.00;93448.59;5071272;28;20048;-77
2021/09/10 05:31:02;;;;;;;20.45;7.88;;;;;;;13.17;100.00;93464.22;5070841;28;20055;-77
2021/09/10 05:33:29;;;;;;;13.68;8.13;;;;;;;13.22;100.00;93461.78;5070967;28;20056;-76
2021/09/10 05:35:55;;;;;;;12.45;7.88;;;;;;;13.38;100.00;93464.75;5071261;28;20045;-76
2021/09/10 05:38:22;;;;;;;12.93;7.93;;;;;;;13.60;100.00;93465.03;5070932;28;20048;-77
2021/09/10 05:40:49;;;;;;;13.68;7.70;;;;;;;13.67;100.00;93463.16;5070900;28;20040;-77
2021/09/10 05:43:17;;;;;;;9.88;7.13;;;;;;;13.74;100.00;93456.09;5071056;28;20046;-77
2021/09/10 05:45:44;;;;;;;13.75;7.70;;;;;;;13.75;100.00;93442.19;5070831;28;20411;-76
2021/09/10 05:48:11;;;;;;;12.05;8.05;;;;;;;13.97;100.00;93464.88;5031307;28;1151623;-76
2021/09/10 05:50:38;;;;;;;20.10;8.52;;;;;;;14.02;100.00;93448.69;5072336;28;20049;-76
2021/09/10 05:53:06;;;;;;;18.73;9.10;;;;;;;14.17;100.00;93461.19;5071825;28;20428;-77
2021/09/10 05:55:33;;;;;;;18.70;10.68;;;;;;;14.01;100.00;93455.69;5071047;28;20052;-77
2021/09/10 05:58:00;;;;;;;14.45;9.40;;;;;;;14.01;100.00;93463.41;5071854;28;20052;-76
2021/09/10 06:00:28;;;;;;;12.90;8.52;;;;;;;14.13;100.00;93442.75;5071583;28;20048;-77
2021/09/10 06:02:55;;;;;;;26.00;12.98;;;;;;;14.53;100.00;93456.75;5071814;28;20048;-77
2021/09/10 06:05:22;;;;;;;21.00;11.88;;;;;;;14.74;100.00;93454.56;5072016;28;20056;-77
2021/09/10 06:07:49;;;;;;;26.20;13.52;;;;;;;14.95;100.00;93444.66;5071814;28;20098;-77
2021/09/10 06:10:18;;;;;;;30.90;16.27;;;;;;;15.17;98.94;93439.59;5071308;28;20051;-77
2021/09/10 06:12:45;;;;;;;39.30;20.27;;;;;;;15.54;98.69;93455.72;5071769;28;20041;-77
2021/09/10 06:15:12;;;;;;;42.72;18.02;;;;;;;15.84;96.95;93449.47;5071537;28;20079;-77
2021/09/10 06:17:40;;;;;;;42.67;21.95;;;;;;;16.14;95.69;93453.53;5071451;28;20049;-77
2021/09/10 06:20:09;;;;;;;53.63;22.67;;;;;;;16.44;93.75;93442.03;5071095;28;20045;-77
2021/09/10 06:22:36;;;;;;;51.33;22.95;;;;;;;16.33;91.84;93441.09;5071112;28;20048;-77
2021/09/10 06:25:04;;;;;;;44.78;21.27;;;;;;;16.23;92.92;93449.53;5071428;28;20040;-77
2021/09/10 06:27:31;;;;;;;46.90;20.35;;;;;;;16.36;92.60;93448.41;5071540;28;20059;-77
2021/09/10 06:29:58;;;;;;;30.60;13.18;;;;;;;16.49;91.36;93452.47;5071274;28;20075;-77
2021/09/10 06:32:25;;;;;;;43.67;15.32;;;;;;;16.55;91.11;93446.31;5071212;28;20045;-77
2021/09/10 06:34:53;;;;;;;31.65;15.50;;;;;;;16.77;90.30;93431.75;5070717;28;20501;-77
2021/09/10 06:37:21;;;;;;;27.35;13.63;;;;;;;16.81;89.25;93449.19;5070894;28;20045;-77
2021/09/10 06:39:48;;;;;;;28.35;12.70;;;;;;;16.70;89.32;93427.56;5071175;28;20097;-77
2021/09/10 06:42:15;;;;;;;28.10;12.57;;;;;;;16.73;89.88;93449.63;5070979;28;20044;-77
2021/09/10 06:44:41;;;;;;;25.38;11.40;;;;;;;17.11;88.05;93447.19;5071165;28;20060;-77
2021/09/10 06:47:08;;;;;;;28.00;11.40;;;;;;;17.54;87.04;93442.13;5070688;28;20051;-77
2021/09/10 06:49:35;;;;;;;18.65;7.50;;;;;;;17.87;84.43;93427.31;5069444;28;20078;-78
2021/09/10 06:52:04;;;;;;;21.35;7.90;;;;;;;18.23;80.42;93449.41;5068302;28;20489;-77
2021/09/10 06:54:30;;;;;;;23.38;7.65;;;;;;;18.42;80.50;93406.34;5069155;28;20055;-78
2021/09/10 06:56:57;;;;;;;9.13;4.50;;;;;;;18.14;77.74;93444.66;5070698;28;20053;-77
2021/09/10 06:59:24;;;;;;;18.50;8.27;;;;;;;17.72;80.95;93451.38;5070500;28;20052;-78
2021/09/10 07:01:51;;;;;;;12.93;6.68;;;;;;;18.17;81.74;93435.59;5070089;28;20052;-78
2021/09/10 07:04:18;;;;;;;16.88;7.00;;;;;;;18.67;79.99;93443.13;5070534;28;20048;-78
2021/09/10 07:06:45;;;;;;;11.40;5.85;;;;;;;19.05;78.28;93443.00;5069689;28;20052;-77
2021/09/10 07:09:13;;;;;;;12.38;5.45;;;;;;;19.38;76.07;93437.63;5069988;28;20048;-78
2021/09/10 07:11:40;;;;;;;14.07;5.05;;;;;;;19.47;73.57;93436.03;5069943;28;20498;-78
2021/09/10 07:14:07;;;;;;;20.02;6.10;;;;;;;19.69;74.18;93435.81;5069976;28;20414;-79
2021/09/10 07:16:34;;;;;;;13.23;6.30;;;;;;;19.83;73.63;93430.84;5070038;28;20052;-78
2021/09/10 07:19:01;;;;;;;15.13;6.20;;;;;;;20.10;74.48;93440.22;5070090;28;20053;-78
2021/09/10 07:21:28;;;;;;;16.10;6.47;;;;;;;20.28;72.97;93446.69;5070113;28;20052;-78
2021/09/10 07:23:55;;;;;;;15.80;7.10;;;;;;;20.39;71.99;93447.47;5069597;28;20058;-78
2021/09/10 07:26:25;;;;;;;15.98;7.28;;;;;;;20.36;70.33;93450.59;5070074;28;20048;-79
2021/09/10 07:28:52;;;;;;;18.85;7.28;;;;;;;20.60;68.69;93457.81;5069530;28;20052;-79
2021/09/10 07:31:18;;;;;;;19.60;6.30;;;;;;;19.70;71.27;93450.38;5069955;28;20386;-78
2021/09/10 07:33:45;;;;;;;14.70;7.30;;;;;;;19.93;71.94;93455.31;5069608;28;20114;-78
2021/09/10 07:36:12;;;;;;;15.45;6.72;;;;;;;19.97;70.26;93451.97;5069721;28;20063;-78
2021/09/10 07:38:39;;;;;;;17.55;6.03;;;;;;;20.00;69.97;93454.03;5069729;28;20052;-79
2021/09/10 07:41:06;;;;;;;12.52;6.00;;;;;;;19.62;70.49;93415.22;5069441;28;20052;-79
2021/09/10 07:43:34;;;;;;;15.85;6.00;;;;;;;19.71;71.60;93456.38;5069684;28;20052;-79
2021/09/10 07:46:01;;;;;;;13.77;5.97;;;;;;;19.92;70.78;93459.78;5069253;28;20102;-78
2021/09/10 07:48:28;;;;;;;12.68;6.00;;;;;;;20.01;68.19;93460.81;5069743;28;20049;-78
2021/09/10 07:50:55;;;;;;;15.85;5.80;;;;;;;20.14;70.49;93459.50;5069701;28;20456;-79
2021/09/10 07:53:21;;;;;;;12.82;4.82;;;;;;;20.27;71.27;93446.97;5069958;28;20037;-78
2021/09/10 07:55:48;;;;;;;11.38;4.85;;;;;;;20.55;69.98;93461.25;5069376;28;20680;-78
2021/09/10 07:58:15;;;;;;;12.43;4.38;;;;;;;20.68;68.71;93456.50;5069543;28;20059;-78
2021/09/10 08:00:43;;;;;;;10.95;4.72;;;;;;;20.76;65.56;93450.75;5069345;28;20063;-79
2021/09/10 08:03:10;;;;;;;12.93;4.53;;;;;;;20.96;65.96;93452.50;5069492;28;20504;-78
2021/09/10 08:05:38;;;;;;;15.02;5.85;;;;;;;21.07;67.99;93449.84;5069382;28;20048;-78
2021/09/10 08:08:06;;;;;;;11.10;4.22;;;;;;;21.22;67.42;93452.38;5066965;28;20106;-79
2021/09/10 08:10:33;;;;;;;10.65;4.38;;;;;;;21.35;66.75;93447.59;5067569;28;20489;-78
2021/09/10 08:12:59;;;;;;;8.32;4.30;;;;;;;21.41;66.49;93450.94;5069550;28;20451;-79
2021/09/10 08:15:26;;;;;;;8.82;4.15;;;;;;;21.19;62.34;93418.16;5069358;28;20082;-79
2021/09/10 08:17:54;;;;;;;13.48;4.00;;;;;;;21.43;62.40;93441.78;5068789;28;20440;-79
2021/09/10 08:20:21;;;;;;;8.15;3.75;;;;;;;21.54;61.17;93452.16;5069016;28;20059;-77
2021/09/10 08:22:48;;;;;;;12.18;4.50;;;;;;;21.50;63.41;93451.94;5069492;28;20048;-77
2021/09/10 08:25:16;;;;;;;11.27;4.38;;;;;;;21.57;62.63;93455.03;5068860;28;20520;-78
2021/09/10 08:27:43;;;;;;;17.73;5.05;;;;;;;21.32;62.26;93454.16;5068933;28;20136;-79
2021/09/10 08:30:11;;;;;;;10.00;3.92;;;;;;;21.38;63.45;93451.50;5069053;28;20061;-78
2021/09/10 08:32:38;;;;;;;11.20;3.88;;;;;;;21.21;61.57;93426.53;5069209;28;20052;-78
2021/09/10 08:35:07;;;;;;;10.38;4.07;;;;;;;21.23;63.57;93440.09;5069317;28;20052;-80
2021/09/10 08:37:34;;;;;;;10.60;3.95;;;;;;;21.49;62.15;93435.47;5069283;28;20040;-79
2021/09/10 08:40:02;;;;;;;11.65;3.92;;;;;;;21.60;61.23;93415.28;5068871;28;20049;-80
2021/09/10 08:42:29;;;;;;;9.18;3.00;;;;;;;21.94;59.80;93439.09;5065212;28;20135;-79
2021/09/10 08:44:56;;;;;;;6.18;2.45;;;;;;;21.86;55.76;93438.59;5067022;28;20044;-78
2021/09/10 08:47:24;;;;;;;10.23;2.83;;;;;;;21.90;59.23;93415.31;5068956;28;20052;-78
2021/09/10 08:49:53;;;;;;;9.50;3.72;;;;;;;21.66;57.17;93433.53;5068627;28;20048;-76
2021/09/10 08:52:22;;;;;;;6.07;2.00;;;;;;;21.44;55.89;93427.66;5056994;28;20052;-77
2021/09/10 08:54:49;;;;;;;6.10;2.50;;;;;;;21.49;53.61;93419.78;5068542;28;20050;-77
2021/09/10 08:57:16;;;;;;;3.85;1.85;;;;;;;21.57;51.80;93418.44;5068652;28;20520;-78
2021/09/10 08:59:43;;;;;;;4.32;1.90;;;;;;;21.31;50.13;93399.53;5068603;28;20055;-79
2021/09/10 09:02:10;;;;;;;6.38;1.65;;;;;;;21.02;50.76;93410.69;5068547;28;20063;-77
2021/09/10 09:04:38;;;;;;;4.32;1.42;;;;;;;21.58;51.11;93417.38;5068760;28;20056;-78
2021/09/10 09:07:06;;;;;;;6.32;2.00;;;;;;;21.54;49.21;93418.19;5068858;28;20048;-76
2021/09/10 09:09:39;;;;;;;4.10;1.83;;;;;;;21.26;50.99;93420.47;5068542;28;20057;-75
2021/09/10 09:12:19;;;;;;;4.10;1.70;;;;;;;21.09;51.82;93414.56;5068879;28;20071;-77
2021/09/10 09:14:48;;;;;;;6.65;2.10;;;;;;;20.70;52.87;93405.59;5068226;28;20084;-77
2021/09/10 09:17:19;;;;;;;7.40;2.45;;;;;;;20.74;52.23;93403.22;5068548;28;20143;-76
2021/09/10 09:19:46;;;;;;;6.13;1.85;;;;;;;21.16;53.75;93393.34;5068328;28;20135;-77
2021/09/10 09:22:13;;;;;;;5.40;1.88;;;;;;;20.74;53.46;93387.56;5068530;28;20055;-75
2021/09/10 09:24:41;;;;;;;6.38;2.13;;;;;;;20.59;53.85;93404.06;5068234;28;20049;-76
2021/09/10 09:27:11;;;;;;;6.35;2.00;;;;;;;20.49;54.01;93393.69;5068722;28;20044;-76
2021/09/10 09:29:50;;;;;;;6.72;2.22;;;;;;;20.25;54.30;93396.91;5069011;28;20045;-76
2021/09/10 09:32:17;;;;;;;7.80;2.13;;;;;;;20.48;51.91;93398.13;5071941;28;20052;-77
2021/09/10 09:34:46;;;;;;;7.05;2.28;;;;;;;20.58;52.89;93392.09;5072036;28;20044;-76
2021/09/10 09:37:13;;;;;;;8.65;2.72;;;;;;;20.52;53.45;93400.97;5071754;28;20128;-75
2021/09/10 09:39:53;;;;;;;6.97;2.17;;;;;;;20.55;51.19;93398.63;5072291;28;20126;-75
2021/09/10 09:42:27;;;;;;;6.03;2.13;;;;;;;20.61;51.45;93388.16;5071679;28;20048;-75
2021/09/10 09:45:14;;;;;;;8.32;2.38;;;;;;;21.20;51.43;93396.22;5071675;28;20059;-75
2021/09/10 09:47:43;;;;;;;6.15;2.00;;;;;;;21.40;51.04;93391.91;5071557;28;20052;-76
2021/09/10 09:50:12;;;;;;;6.40;2.45;;;;;;;21.16;49.68;93390.75;5071711;28;20113;-75
2021/09/10 09:52:39;;;;;;;6.15;2.15;;;;;;;20.76;52.46;93387.31;5071334;28;20090;-74
2021/09/10 09:55:09;;;;;;;6.90;2.42;;;;;;;21.23;51.04;93387.84;5072104;28;20055;-75
2021/09/10 09:57:36;;;;;;;5.70;2.08;;;;;;;21.38;51.41;93388.78;5072036;28;20070;-75
2021/09/10 10:00:05;;;;;;;12.73;2.40;;;;;;;21.15;50.50;93383.97;5071551;28;20057;-75
2021/09/10 10:02:32;;;;;;;8.23;1.85;;;;;;;21.27;47.95;93395.91;5071365;28;20045;-75
2021/09/10 10:05:02;;;;;;;6.40;2.05;;;;;;;21.56;48.11;93385.50;5071437;28;20103;-75
2021/09/10 10:07:32;;;;;;;5.35;1.88;;;;;;;21.56;48.65;93392.59;5072031;28;20132;-77
2021/09/10 10:10:01;;;;;;;5.50;2.28;;;;;;;21.36;47.65;93389.84;5071826;28;20151;-78
2021/09/10 10:12:30;;;;;;;6.22;2.00;;;;;;;20.97;45.88;93393.25;5071875;28;20052;-77
2021/09/10 10:15:21;;;;;;;6.43;2.40;;;;;;;20.73;48.20;93388.63;5071330;28;20502;-77
2021/09/10 10:17:48;;;;;;;8.02;1.98;;;;;;;20.79;48.03;93392.00;5071346;28;20056;-77
2021/09/10 10:20:51;;;;;;;5.03;2.10;;;;;;;20.91;50.44;93396.91;5070661;28;20059;-77
2021/09/10 10:23:53;;;;;;;8.45;2.28;;;;;;;21.35;48.91;93383.03;5071357;28;20444;-78
2021/09/10 10:26:31;;;;;;;5.43;2.65;;;;;;;21.46;47.72;93380.34;5064209;28;20131;-77
2021/09/10 10:29:17;;;;;;;7.15;2.20;;;;;;;21.66;46.64;93382.03;5071537;28;20044;-78
2021/09/10 10:32:04;;;;;;;7.72;2.45;;;;;;;;;;5071283;28;20049;-75
2021/09/10 10:34:33;;;;;;;4.40;1.67;;;;;;;22.14;44.45;93380.56;5070952;28;20052;-75
2021/09/10 10:37:00;;;;;;;7.20;2.00;;;;;;;22.07;45.14;93361.81;5071203;28;20045;-74
2021/09/10 10:39:29;;;;;;;3.78;1.90;;;;;;;22.48;46.13;93347.47;5071325;28;20456;-75
2021/09/10 10:41:59;;;;;;;3.60;1.90;;;;;;;22.40;46.43;93365.34;5068735;28;20493;-75
2021/09/10 10:45:00;;;;;;;5.68;2.60;;;;;;;22.64;45.07;93364.56;5070614;28;20045;-75
2021/09/10 10:47:34;;;;;;;5.97;2.17;;;;;;;22.39;46.59;93360.41;5070920;28;20057;-76
2021/09/10 10:50:02;;;;;;;9.23;2.58;;;;;;;22.82;44.63;93354.41;5070640;28;20060;-75
2021/09/10 10:52:41;;;;;;;4.05;1.45;;;;;;;22.91;42.69;93346.69;5071234;28;20071;-76
2021/09/10 10:55:25;;;;;;;4.60;2.10;;;;;;;23.02;43.57;93332.38;5070503;28;20083;-77
2021/09/10 10:57:54;;;;;;;6.93;1.90;;;;;;;23.46;41.69;93325.19;5070355;28;20566;-76
2021/09/10 11:00:48;;;;;;;6.93;1.63;;;;;;;23.11;40.52;93344.84;5070574;28;20055;-75
2021/09/10 11:03:37;;;;;;;4.85;1.48;;;;;;;22.56;38.67;93328.56;5070414;28;20579;-75
2021/09/10 11:06:29;;;;;;;4.65;1.77;;;;;;;22.84;40.52;93349.66;5067753;28;20056;-76
2021/09/10 11:08:56;;;;;;;5.60;1.85;;;;;;;22.66;39.53;93351.19;5065833;28;20052;-77
2021/09/10 11:11:41;;;;;;;6.15;2.33;;;;;;;22.63;39.10;93328.22;5070459;28;20052;-77
2021/09/10 11:14:10;;;;;;;9.73;2.00;;;;;;;23.19;40.91;93339.72;5069941;28;20094;-78
2021/09/10 11:16:39;;;;;;;7.35;1.90;;;;;;;23.48;40.97;93330.91;5069530;28;20048;-77
2021/09/10 11:19:09;;;;;;;6.22;2.00;;;;;;;23.89;38.42;93339.91;5070219;28;20052;-78
2021/09/10 11:21:43;;;;;;;5.70;1.75;;;;;;;23.16;35.61;93334.28;5069822;28;20101;-78
2021/09/10 11:24:11;;;;;;;6.55;2.30;;;;;;;23.29;35.27;93311.81;5050483;28;20512;-78
2021/09/10 11:26:38;;;;;;;4.95;1.60;;;;;;;22.83;35.48;93340.25;5050592;28;20094;-77
2021/09/10 11:29:13;;;;;;;5.00;1.90;;;;;;;23.14;36.57;93331.16;5050085;28;20045;-78
2021/09/10 11:31:43;;;;;;;4.60;1.60;;;;;;;23.39;35.44;93318.75;5050205;28;20052;-78